Terminal Aerodrome Forecast
Issued by NWS

Home | Current Version | Previous Version | Text Only | Print | Product List | Glossary On
Versions: 1 2 3 4 5 6 7 8 9 10 11 12 13 14 15 16 17 18 19 20 21 22 23 24 25 26 27
000
FTUS41 KBTV 271128 AAA
TAFPBG
TAF AMD
KPBG 271128Z 2711/2812 34013KT P6SM OVC060
     FM271600 35011G19KT 4SM -SN BR OVC030
     FM271800 35012G22KT 1SM -SN OVC025
     FM272200 35018G27KT 6SM -SN BR OVC025
     FM280300 35014G21KT P6SM -SN OVC035
     FM280700 34011KT P6SM VCSH OVC045=

USA.gov is the U.S. government's official web portal to all federal, state and local government web resources and services.